createdAt,value
2022-11-30T00:01:23.404Z,107.13
2022-11-30T00:04:13.284Z,76.82
2022-11-30T00:07:01.674Z,105.93
2022-11-30T00:09:50.004Z,101.78
2022-11-30T00:12:38.598Z,114.05
2022-11-30T00:15:26.953Z,110.10
2022-11-30T00:18:16.813Z,95.15
2022-11-30T00:21:08.788Z,97.70
2022-11-30T00:23:57.283Z,120.18
2022-11-30T00:26:45.656Z,144.98
2022-11-30T00:29:34.180Z,104.25
2022-11-30T00:32:22.761Z,99.95
2022-11-30T00:35:11.097Z,115.40
2022-11-30T00:38:03.178Z,134.68
2022-11-30T00:40:51.614Z,218.40
2022-11-30T00:43:40.197Z,212.65
2022-11-30T00:46:28.611Z,119.60
2022-11-30T00:49:17.040Z,120.95
2022-11-30T00:52:05.774Z,186.07
2022-11-30T00:54:55.506Z,106.95
2022-11-30T00:57:43.858Z,126.70
2022-11-30T01:00:32.217Z,110.18
2022-11-30T01:03:20.591Z,159.50
2022-11-30T01:06:10.609Z,119.80
2022-11-30T01:09:00.229Z,134.38
2022-11-30T01:11:49.912Z,130.13
2022-11-30T01:14:38.252Z,110.60
2022-11-30T01:17:26.599Z,169.55
2022-11-30T01:20:15.143Z,105.82
2022-11-30T01:23:03.437Z,246.25
2022-11-30T01:25:55.943Z,125.78
2022-11-30T01:28:45.989Z,139.80
2022-11-30T01:31:34.327Z,103.03
2022-11-30T01:34:22.798Z,122.95
2022-11-30T01:37:11.220Z,115.47
2022-11-30T01:39:59.556Z,174.45
2022-11-30T01:42:48.522Z,134.00
2022-11-30T01:45:38.204Z,89.93
2022-11-30T01:48:26.571Z,109.55
2022-11-30T01:51:14.943Z,109.03
2022-11-30T01:54:05.421Z,215.73
2022-11-30T01:56:57.154Z,198.07
2022-11-30T01:59:45.721Z,185.40
2022-11-30T02:02:41.167Z,201.63
2022-11-30T02:05:30.121Z,118.22
2022-11-30T02:08:20.136Z,126.25
2022-11-30T02:11:13.782Z,126.27
2022-11-30T02:14:18.947Z,251.55
2022-11-30T02:17:16.748Z,114.03
2022-11-30T02:20:35.566Z,132.68
2022-11-30T02:23:56.512Z,107.35
2022-11-30T02:26:57.663Z,164.98
2022-11-30T02:29:50.291Z,253.43
2022-11-30T02:32:46.741Z,125.68
2022-11-30T02:35:38.558Z,114.75
2022-11-30T02:38:29.076Z,107.43
2022-11-30T02:41:17.431Z,111.00
2022-11-30T02:44:06.877Z,142.13
2022-11-30T02:47:16.208Z,147.10
2022-11-30T02:50:10.205Z,242.23
2022-11-30T02:52:59.353Z,109.07
2022-11-30T02:55:47.797Z,121.80
2022-11-30T02:58:36.307Z,123.88
2022-11-30T03:01:24.718Z,153.70
2022-11-30T03:04:14.497Z,124.45
2022-11-30T03:07:02.827Z,127.35
2022-11-30T03:09:51.484Z,181.13
2022-11-30T03:12:39.805Z,163.55
2022-11-30T03:15:28.735Z,121.63
2022-11-30T03:18:17.077Z,133.23
2022-11-30T03:21:08.787Z,192.80
2022-11-30T03:23:57.056Z,172.52
2022-11-30T03:26:46.004Z,143.35
2022-11-30T03:29:34.326Z,216.05
2022-11-30T03:32:22.659Z,115.35
2022-11-30T03:35:11.735Z,192.38
2022-11-30T03:38:01.437Z,178.20
2022-11-30T03:40:49.757Z,120.32
2022-11-30T03:43:38.062Z,139.55
2022-11-30T03:46:27.579Z,206.23
2022-11-30T03:49:15.969Z,163.43
2022-11-30T03:52:04.329Z,232.25
2022-11-30T03:55:05.511Z,192.73
2022-11-30T03:57:53.854Z,160.23
2022-11-30T04:00:42.215Z,165.55
2022-11-30T04:03:30.933Z,185.07
2022-11-30T04:06:19.832Z,146.63
2022-11-30T04:09:08.794Z,137.02
2022-11-30T04:11:59.045Z,134.20
2022-11-30T04:14:47.571Z,148.43
2022-11-30T04:17:36.115Z,159.10
2022-11-30T04:20:24.473Z,152.93
2022-11-30T04:23:13.730Z,141.27
2022-11-30T04:26:04.147Z,136.25
2022-11-30T04:28:53.799Z,135.55
2022-11-30T04:31:42.297Z,145.45
2022-11-30T04:34:31.631Z,147.02
2022-11-30T04:37:19.979Z,142.65
2022-11-30T04:40:09.494Z,143.77
2022-11-30T04:42:57.842Z,149.70
2022-11-30T04:45:48.313Z,141.50
2022-11-30T04:48:36.869Z,144.80
2022-11-30T04:51:25.210Z,144.40
2022-11-30T04:54:13.546Z,173.88
2022-11-30T04:57:01.848Z,156.80
2022-11-30T04:59:50.679Z,152.82
2022-11-30T05:02:40.867Z,145.15
2022-11-30T05:05:29.314Z,105.60
2022-11-30T05:08:17.677Z,131.65
2022-11-30T05:11:06.285Z,118.82
2022-11-30T05:13:54.652Z,113.03
2022-11-30T05:16:42.976Z,119.15
2022-11-30T05:19:32.734Z,114.15
2022-11-30T05:22:21.093Z,114.70
2022-11-30T05:25:10.373Z,107.95
2022-11-30T05:27:58.754Z,113.82
2022-11-30T05:30:47.314Z,100.55
2022-11-30T05:33:36.114Z,103.75
2022-11-30T05:36:25.864Z,121.47
2022-11-30T05:39:14.162Z,102.97
2022-11-30T05:42:02.477Z,100.63
2022-11-30T05:44:51.077Z,105.07
2022-11-30T05:47:39.528Z,107.95
2022-11-30T05:50:27.865Z,101.18
2022-11-30T05:53:17.584Z,103.35
2022-11-30T05:56:07.263Z,102.15
2022-11-30T05:58:55.613Z,99.82
2022-11-30T06:01:44.112Z,109.78
2022-11-30T06:04:33.699Z,104.93
2022-11-30T06:07:22.121Z,105.95
2022-11-30T06:10:13.112Z,107.07
2022-11-30T06:13:08.192Z,99.78
2022-11-30T06:15:59.997Z,96.75
2022-11-30T06:18:48.389Z,108.07
2022-11-30T06:21:36.753Z,100.30
2022-11-30T06:24:25.125Z,101.97
2022-11-30T06:27:14.828Z,99.88
2022-11-30T06:30:03.178Z,106.65
2022-11-30T06:32:53.001Z,102.15
2022-11-30T06:35:46.410Z,107.22
2022-11-30T06:38:34.795Z,100.45
2022-11-30T06:41:23.135Z,99.88
2022-11-30T06:44:12.855Z,103.25
2022-11-30T06:47:01.212Z,103.10
2022-11-30T06:49:49.496Z,106.15
2022-11-30T06:52:37.848Z,105.50
2022-11-30T06:55:26.191Z,104.63
2022-11-30T06:58:14.588Z,100.47
2022-11-30T07:01:06.051Z,117.38
2022-11-30T07:03:55.034Z,108.65
2022-11-30T07:06:43.523Z,101.45
2022-11-30T07:09:32.455Z,102.57
2022-11-30T07:12:20.862Z,106.53
2022-11-30T07:15:10.426Z,104.53
2022-11-30T07:18:02.951Z,118.40
2022-11-30T07:20:51.539Z,102.38
2022-11-30T07:23:57.659Z,99.38
2022-11-30T07:26:46.033Z,109.40
2022-11-30T07:29:34.419Z,110.57
2022-11-30T07:32:22.771Z,106.35
2022-11-30T07:35:12.540Z,108.88
2022-11-30T07:38:03.168Z,102.60
2022-11-30T07:40:55.118Z,114.35
2022-11-30T07:43:43.475Z,111.38
2022-11-30T07:46:33.537Z,109.50
2022-11-30T07:49:21.855Z,120.88
2022-11-30T07:52:11.659Z,102.15
2022-11-30T07:55:00.024Z,111.45
2022-11-30T07:57:48.362Z,105.88
2022-11-30T08:00:36.853Z,108.80
2022-11-30T08:03:25.378Z,105.35
2022-11-30T08:06:15.696Z,108.75
2022-11-30T08:09:05.528Z,101.32
2022-11-30T08:11:53.854Z,110.47
2022-11-30T08:15:17.589Z,106.20
2022-11-30T08:17:55.151Z,97.65
2022-11-30T08:20:49.688Z,109.15
2022-11-30T08:23:40.278Z,104.25
2022-11-30T08:26:31.950Z,100.47
2022-11-30T08:29:20.459Z,99.68
2022-11-30T08:32:08.779Z,96.82
2022-11-30T08:34:57.108Z,100.88
2022-11-30T08:37:45.480Z,96.70
2022-11-30T08:40:34.136Z,93.28
2022-11-30T08:43:23.883Z,97.15
2022-11-30T08:49:24.738Z,96.23
2022-11-30T08:52:18.230Z,110.40
2022-11-30T08:55:08.128Z,91.72
2022-11-30T08:57:56.522Z,98.43
2022-11-30T09:00:46.210Z,95.38
2022-11-30T09:03:34.760Z,93.70
2022-11-30T09:06:25.559Z,97.00
2022-11-30T09:09:13.914Z,104.22
2022-11-30T09:12:02.401Z,92.32
2022-11-30T09:14:57.270Z,90.85
2022-11-30T09:17:47.532Z,90.25
2022-11-30T09:20:36.155Z,93.97
2022-11-30T09:23:24.516Z,92.25
2022-11-30T09:26:16.164Z,93.22
2022-11-30T09:29:05.054Z,92.45
2022-11-30T09:31:53.436Z,87.00
2022-11-30T09:34:44.201Z,90.00
2022-11-30T09:37:32.648Z,86.05
2022-11-30T09:40:23.704Z,87.68
2022-11-30T09:46:09.573Z,84.35
2022-11-30T09:49:03.097Z,77.57
2022-11-30T09:51:54.617Z,82.22
2022-11-30T09:54:45.475Z,78.40
2022-11-30T10:00:26.069Z,82.50
2022-11-30T10:03:14.780Z,80.03
2022-11-30T10:06:09.867Z,79.03
2022-11-30T10:09:19.172Z,82.03
2022-11-30T10:12:12.674Z,80.18
2022-11-30T10:15:20.000Z,77.85
2022-11-30T10:18:18.283Z,77.43
2022-11-30T10:21:18.087Z,81.63
2022-11-30T10:24:21.122Z,73.22
2022-11-30T10:27:17.597Z,78.45
2022-11-30T10:30:15.434Z,72.47
2022-11-30T10:33:13.435Z,74.43
2022-11-30T10:36:07.149Z,75.32
2022-11-30T10:39:00.309Z,72.38
2022-11-30T10:41:54.820Z,73.60
2022-11-30T10:44:47.309Z,73.65
2022-11-30T10:47:37.762Z,70.70
2022-11-30T10:50:30.158Z,90.00
2022-11-30T10:53:18.585Z,71.15
2022-11-30T10:56:10.848Z,72.57
2022-11-30T10:59:04.475Z,66.72
2022-11-30T11:01:53.496Z,65.60
2022-11-30T11:04:41.963Z,68.18
2022-11-30T11:07:32.705Z,64.68
2022-11-30T11:10:24.790Z,60.38
2022-11-30T11:13:17.914Z,70.18
2022-11-30T11:16:09.725Z,60.38
2022-11-30T11:18:59.029Z,57.72
2022-11-30T11:21:50.241Z,60.50
2022-11-30T11:24:38.656Z,67.32
2022-11-30T11:27:29.559Z,64.35
2022-11-30T11:30:28.531Z,56.58
2022-11-30T11:33:23.713Z,59.25
2022-11-30T11:36:16.472Z,63.28
2022-11-30T11:39:25.169Z,55.63
2022-11-30T11:42:22.174Z,58.22
2022-11-30T11:45:18.421Z,60.83
2022-11-30T11:48:29.021Z,61.42
2022-11-30T11:51:31.158Z,60.13
2022-11-30T11:54:25.393Z,59.92
2022-11-30T11:57:16.666Z,57.40
2022-11-30T12:00:16.168Z,59.03
2022-11-30T12:03:15.404Z,61.15
2022-11-30T12:06:10.109Z,58.80
2022-11-30T12:09:04.329Z,57.28
2022-11-30T12:11:52.702Z,54.42
2022-11-30T12:14:41.153Z,61.20
2022-11-30T12:17:41.169Z,57.05
2022-11-30T12:20:51.280Z,56.20
2022-11-30T12:24:06.310Z,57.15
2022-11-30T12:27:05.298Z,58.35
2022-11-30T12:30:04.042Z,57.60
2022-11-30T12:33:10.056Z,56.15
2022-11-30T12:36:03.821Z,59.03
2022-11-30T12:38:58.821Z,55.95
2022-11-30T12:41:52.371Z,54.35
2022-11-30T12:44:51.169Z,59.88
2022-11-30T12:47:51.154Z,52.50
2022-11-30T12:50:50.678Z,55.17
2022-11-30T12:53:44.178Z,58.95
2022-11-30T12:56:46.165Z,54.22
2022-11-30T12:59:41.728Z,58.20
2022-11-30T13:03:01.711Z,59.92
2022-11-30T13:05:53.338Z,56.13
2022-11-30T13:08:52.463Z,60.10
2022-11-30T13:11:44.486Z,56.47
2022-11-30T13:14:34.722Z,54.25
2022-11-30T13:17:24.255Z,59.73
2022-11-30T13:20:22.384Z,58.65
2022-11-30T13:23:16.135Z,55.45
2022-11-30T13:26:10.104Z,54.70
2022-11-30T13:29:11.966Z,53.40
2022-11-30T13:32:22.247Z,58.28
2022-11-30T13:35:46.445Z,58.22
2022-11-30T13:38:37.842Z,57.72
2022-11-30T13:41:26.686Z,57.35
2022-11-30T13:44:25.389Z,52.92
2022-11-30T13:47:20.849Z,56.63
2022-11-30T13:50:21.693Z,58.88
2022-11-30T13:53:24.554Z,58.13
2022-11-30T13:56:35.018Z,60.25
2022-11-30T13:59:45.607Z,55.05
2022-11-30T14:02:54.230Z,62.90
2022-11-30T14:05:44.185Z,52.85
2022-11-30T14:08:37.285Z,54.70
2022-11-30T14:11:43.681Z,61.85
2022-11-30T14:14:46.712Z,49.92
2022-11-30T14:17:36.608Z,58.00
2022-11-30T14:20:31.049Z,60.00
2022-11-30T14:23:27.233Z,57.75
2022-11-30T14:26:19.072Z,58.95
2022-11-30T14:29:17.647Z,57.35
2022-11-30T14:32:12.658Z,58.67
2022-11-30T14:35:08.259Z,59.80
2022-11-30T14:37:58.897Z,50.10
2022-11-30T14:40:52.521Z,54.67
2022-11-30T14:43:42.313Z,55.95
2022-11-30T14:46:31.304Z,55.05
2022-11-30T14:49:21.280Z,60.38
2022-11-30T14:52:16.741Z,55.03
2022-11-30T14:55:17.032Z,50.97
2022-11-30T14:58:17.354Z,52.03
2022-11-30T15:01:18.260Z,38.73
2022-11-30T15:04:14.242Z,52.97
2022-11-30T15:07:02.587Z,54.53
2022-11-30T15:09:55.134Z,56.72
2022-11-30T15:12:45.279Z,49.47
2022-11-30T15:15:38.703Z,51.88
2022-11-30T15:18:31.216Z,57.50
2022-11-30T15:21:23.975Z,53.35
2022-11-30T15:24:12.405Z,54.67
2022-11-30T15:27:10.423Z,52.38
2022-11-30T15:30:01.749Z,53.53
2022-11-30T15:32:53.414Z,59.42
2022-11-30T15:36:13.656Z,50.92
2022-11-30T15:38:55.410Z,53.28
2022-11-30T15:41:43.809Z,48.45
2022-11-30T15:44:41.233Z,53.42
2022-11-30T15:47:36.723Z,51.63
2022-11-30T15:50:42.215Z,49.83
2022-11-30T15:53:35.665Z,50.63
2022-11-30T15:56:25.561Z,51.65
2022-11-30T15:59:23.607Z,53.55
2022-11-30T16:02:28.149Z,56.40
2022-11-30T16:05:27.692Z,53.72
2022-11-30T16:08:19.073Z,52.35
2022-11-30T16:11:08.234Z,53.08
2022-11-30T16:13:56.699Z,44.22
2022-11-30T16:16:46.524Z,50.88
2022-11-30T16:19:34.921Z,54.05
2022-11-30T16:22:23.306Z,57.50
2022-11-30T16:25:16.161Z,56.92
2022-11-30T16:28:04.678Z,50.63
2022-11-30T16:30:54.988Z,50.63
2022-11-30T16:33:43.391Z,54.78
2022-11-30T16:36:33.546Z,52.92
2022-11-30T16:39:22.138Z,53.92
2022-11-30T16:42:14.216Z,56.22
2022-11-30T16:45:02.852Z,54.65
2022-11-30T16:47:51.598Z,51.65
2022-11-30T16:50:40.120Z,52.97
2022-11-30T16:53:28.937Z,54.53
2022-11-30T16:56:17.522Z,54.40
2022-11-30T16:59:10.813Z,47.53
2022-11-30T17:02:01.909Z,48.42
2022-11-30T17:04:50.518Z,46.17
2022-11-30T17:07:38.910Z,44.40
2022-11-30T17:10:27.812Z,46.30
2022-11-30T17:13:17.977Z,43.90
2022-11-30T17:16:10.405Z,48.87
2022-11-30T17:18:58.842Z,44.80
2022-11-30T17:21:48.414Z,45.78
2022-11-30T17:24:36.807Z,43.50
2022-11-30T17:27:25.183Z,60.25
2022-11-30T17:30:15.070Z,75.25
2022-11-30T17:33:04.829Z,85.75
2022-11-30T17:35:53.140Z,76.93
2022-11-30T17:38:42.326Z,69.93
2022-11-30T17:41:30.639Z,78.13
2022-11-30T17:44:18.957Z,59.78
2022-11-30T17:47:07.253Z,51.95
2022-11-30T17:49:57.585Z,47.05
2022-11-30T17:52:45.908Z,50.03
2022-11-30T17:55:34.360Z,48.58
2022-11-30T17:58:22.631Z,47.00
2022-11-30T18:01:17.091Z,49.72
2022-11-30T18:04:05.637Z,50.85
2022-11-30T18:06:55.875Z,51.35
2022-11-30T18:09:44.239Z,50.53
2022-11-30T18:12:32.563Z,50.92
2022-11-30T18:15:20.911Z,48.50
2022-11-30T18:18:09.278Z,63.45
2022-11-30T18:21:03.320Z,60.92
2022-11-30T18:23:53.599Z,50.88
2022-11-30T18:26:42.296Z,56.17
2022-11-30T18:29:30.750Z,59.17
2022-11-30T18:32:19.124Z,52.70
2022-11-30T18:35:08.099Z,52.38
2022-11-30T18:37:56.429Z,54.25
2022-11-30T18:40:46.193Z,54.90
2022-11-30T18:43:34.924Z,58.40
2022-11-30T18:46:23.319Z,58.67
2022-11-30T18:49:11.920Z,62.60
2022-11-30T18:52:00.308Z,56.50
2022-11-30T18:54:48.770Z,61.47
2022-11-30T18:57:38.673Z,58.90
2022-11-30T19:00:27.032Z,61.25
2022-11-30T19:03:15.392Z,61.00
2022-11-30T19:06:04.884Z,66.40
2022-11-30T19:08:53.244Z,65.00
2022-11-30T19:11:42.773Z,69.95
2022-11-30T19:14:32.817Z,71.47
2022-11-30T19:17:21.256Z,68.60
2022-11-30T19:20:10.715Z,66.68
2022-11-30T19:22:59.364Z,69.18
2022-11-30T19:25:47.666Z,75.93
2022-11-30T19:28:37.620Z,70.22
2022-11-30T19:31:27.697Z,71.10
2022-11-30T19:34:16.075Z,81.57
2022-11-30T19:37:07.519Z,73.97
2022-11-30T19:39:55.820Z,73.43
2022-11-30T19:42:44.257Z,70.82
2022-11-30T19:45:32.636Z,73.70
2022-11-30T19:48:24.402Z,76.47
2022-11-30T19:51:19.757Z,78.78
2022-11-30T19:54:12.289Z,74.45
2022-11-30T19:57:08.416Z,79.93
2022-11-30T19:59:59.740Z,77.88
2022-11-30T20:05:51.532Z,79.03
2022-11-30T20:08:40.090Z,86.18
2022-11-30T20:11:28.714Z,80.88
2022-11-30T20:14:17.826Z,87.97
2022-11-30T20:17:08.911Z,86.88
2022-11-30T20:19:59.648Z,85.22
2022-11-30T20:22:51.678Z,88.47
2022-11-30T20:25:42.034Z,90.68
2022-11-30T20:28:33.445Z,85.20
2022-11-30T20:31:27.083Z,83.40
2022-11-30T20:34:23.214Z,83.43
2022-11-30T20:37:11.659Z,92.97
2022-11-30T20:40:01.335Z,88.13
2022-11-30T20:42:54.092Z,91.88
2022-11-30T20:45:42.741Z,98.78
2022-11-30T20:48:33.900Z,97.45
2022-11-30T20:51:32.817Z,87.32
2022-11-30T20:54:22.309Z,92.13
2022-11-30T20:57:13.007Z,94.97
2022-11-30T21:00:15.257Z,97.00
2022-11-30T21:03:06.073Z,97.13
2022-11-30T21:05:54.571Z,90.05
2022-11-30T21:08:46.333Z,86.20
2022-11-30T21:11:37.023Z,81.75
2022-11-30T21:14:26.893Z,91.93
2022-11-30T21:17:15.285Z,94.78
2022-11-30T21:20:04.061Z,88.25
2022-11-30T21:22:52.532Z,95.13
2022-11-30T21:25:40.875Z,96.55
2022-11-30T21:28:32.393Z,92.43
2022-11-30T21:31:28.572Z,92.18
2022-11-30T21:34:20.219Z,91.38
2022-11-30T21:37:08.539Z,95.45
2022-11-30T21:39:56.851Z,100.22
2022-11-30T21:42:50.987Z,96.72
2022-11-30T21:45:41.113Z,88.80
2022-11-30T21:48:32.188Z,89.75
2022-11-30T21:51:22.471Z,90.70
2022-11-30T21:54:14.556Z,100.70
2022-11-30T21:57:11.083Z,94.47
2022-11-30T21:59:59.419Z,95.55
2022-11-30T22:02:48.590Z,96.88
2022-11-30T22:05:38.378Z,97.30
2022-11-30T22:08:26.981Z,101.22
2022-11-30T22:11:17.516Z,94.03
2022-11-30T22:14:06.377Z,101.75
2022-11-30T22:16:54.764Z,101.70
2022-11-30T22:19:43.135Z,100.47
2022-11-30T22:22:32.878Z,99.35
2022-11-30T22:25:22.108Z,94.80
2022-11-30T22:28:10.536Z,94.47
2022-11-30T22:31:03.595Z,100.47
2022-11-30T22:33:52.242Z,101.53
2022-11-30T22:36:43.130Z,100.28
2022-11-30T22:39:32.837Z,91.72
2022-11-30T22:42:21.174Z,101.88
2022-11-30T22:45:10.549Z,104.63
2022-11-30T22:47:58.924Z,106.95
2022-11-30T22:50:47.230Z,109.53
2022-11-30T22:53:36.329Z,102.15
2022-11-30T22:56:27.582Z,100.47
2022-11-30T23:02:05.155Z,103.32
2022-11-30T23:04:53.489Z,97.93
2022-11-30T23:07:41.847Z,100.13
2022-11-30T23:10:30.228Z,104.63
2022-11-30T23:13:19.954Z,103.93
2022-11-30T23:16:09.179Z,107.28
2022-11-30T23:18:58.189Z,99.47
2022-11-30T23:21:46.700Z,105.30
2022-11-30T23:24:35.184Z,100.57
2022-11-30T23:27:23.512Z,107.82
2022-11-30T23:30:13.697Z,101.72
2022-11-30T23:33:02.078Z,104.32
2022-11-30T23:35:50.405Z,113.03
2022-11-30T23:38:39.051Z,118.13
2022-11-30T23:41:28.351Z,108.80
2022-11-30T23:44:16.970Z,114.95
2022-11-30T23:47:06.901Z,111.05
2022-11-30T23:49:55.214Z,111.15
2022-11-30T23:52:43.612Z,111.53
2022-11-30T23:55:31.906Z,119.35
2022-11-30T23:58:20.479Z,119.82
